sensor_id;sensor_type;location;lat;lon;timestamp;pressure;altitude;pressure_sealevel;temperature;humidity
13124;BME280;6627;50.920;12.050;2022-11-15T00:01:17;98569.59;;;11.86;63.66
13124;BME280;6627;50.920;12.050;2022-11-15T00:03:45;98561.66;;;11.76;64.02
13124;BME280;6627;50.920;12.050;2022-11-15T00:06:13;98584.38;;;12.20;63.35
13124;BME280;6627;50.920;12.050;2022-11-15T00:08:41;98539.59;;;11.60;64.15
13124;BME280;6627;50.920;12.050;2022-11-15T00:11:11;98545.06;;;11.69;64.19
13124;BME280;6627;50.920;12.050;2022-11-15T00:13:38;98555.13;;;11.69;64.72
13124;BME280;6627;50.920;12.050;2022-11-15T00:16:06;98537.75;;;11.78;64.41
13124;BME280;6627;50.920;12.050;2022-11-15T00:18:34;98559.25;;;12.06;64.12
13124;BME280;6627;50.920;12.050;2022-11-15T00:21:07;98566.81;;;12.35;63.72
13124;BME280;6627;50.920;12.050;2022-11-15T00:23:36;98584.25;;;12.43;63.78
13124;BME280;6627;50.920;12.050;2022-11-15T00:26:06;98561.38;;;12.18;63.72
13124;BME280;6627;50.920;12.050;2022-11-15T00:28:33;98565.09;;;12.39;62.92
13124;BME280;6627;50.920;12.050;2022-11-15T00:31:02;98607.81;;;12.91;62.16
13124;BME280;6627;50.920;12.050;2022-11-15T00:33:29;98547.78;;;12.09;62.90
13124;BME280;6627;50.920;12.050;2022-11-15T00:36:01;98619.19;;;12.75;62.29
13124;BME280;6627;50.920;12.050;2022-11-15T00:38:33;98597.09;;;12.77;61.24
13124;BME280;6627;50.920;12.050;2022-11-15T00:41:04;98602.53;;;12.68;61.81
13124;BME280;6627;50.920;12.050;2022-11-15T00:43:33;98517.56;;;11.62;63.76
13124;BME280;6627;50.920;12.050;2022-11-15T00:46:00;98590.88;;;12.02;64.12
13124;BME280;6627;50.920;12.050;2022-11-15T00:48:28;98514.31;;;11.43;64.52
13124;BME280;6627;50.920;12.050;2022-11-15T00:50:56;98582.44;;;12.12;64.23
13124;BME280;6627;50.920;12.050;2022-11-15T00:53:23;98570.50;;;12.30;63.20
13124;BME280;6627;50.920;12.050;2022-11-15T00:55:50;98547.38;;;11.84;63.75
13124;BME280;6627;50.920;12.050;2022-11-15T00:58:19;98557.31;;;11.98;63.83
13124;BME280;6627;50.920;12.050;2022-11-15T01:00:46;98546.09;;;11.91;64.09
13124;BME280;6627;50.920;12.050;2022-11-15T01:03:13;98564.25;;;12.30;63.14
13124;BME280;6627;50.920;12.050;2022-11-15T01:05:41;98564.69;;;12.06;63.92
13124;BME280;6627;50.920;12.050;2022-11-15T01:08:13;98568.31;;;12.50;62.19
13124;BME280;6627;50.920;12.050;2022-11-15T01:10:41;98579.81;;;12.47;62.57
13124;BME280;6627;50.920;12.050;2022-11-15T01:13:08;98549.88;;;12.21;62.12
13124;BME280;6627;50.920;12.050;2022-11-15T01:15:41;98570.47;;;11.82;63.85
13124;BME280;6627;50.920;12.050;2022-11-15T01:18:09;98561.06;;;11.79;63.92
13124;BME280;6627;50.920;12.050;2022-11-15T01:20:40;98532.03;;;11.49;64.82
13124;BME280;6627;50.920;12.050;2022-11-15T01:23:08;98533.75;;;11.45;64.91
13124;BME280;6627;50.920;12.050;2022-11-15T01:25:37;98538.91;;;11.55;64.69
13124;BME280;6627;50.920;12.050;2022-11-15T01:28:05;98493.22;;;11.40;64.26
13124;BME280;6627;50.920;12.050;2022-11-15T01:30:33;98474.56;;;11.07;64.99
13124;BME280;6627;50.920;12.050;2022-11-15T01:33:02;98532.88;;;11.58;65.33
13124;BME280;6627;50.920;12.050;2022-11-15T01:35:29;98559.72;;;12.08;64.63
13124;BME280;6627;50.920;12.050;2022-11-15T01:37:57;98514.81;;;11.84;63.50
13124;BME280;6627;50.920;12.050;2022-11-15T01:40:24;98515.19;;;11.29;64.95
13124;BME280;6627;50.920;12.050;2022-11-15T01:42:51;98524.91;;;11.61;64.82
13124;BME280;6627;50.920;12.050;2022-11-15T01:45:19;98502.81;;;11.46;64.50
13124;BME280;6627;50.920;12.050;2022-11-15T01:47:52;98494.53;;;11.51;64.71
13124;BME280;6627;50.920;12.050;2022-11-15T01:50:26;98493.81;;;11.28;65.44
13124;BME280;6627;50.920;12.050;2022-11-15T01:52:55;98495.44;;;11.37;65.45
13124;BME280;6627;50.920;12.050;2022-11-15T01:55:26;98525.25;;;12.00;64.54
13124;BME280;6627;50.920;12.050;2022-11-15T01:57:59;98487.06;;;11.48;64.85
13124;BME280;6627;50.920;12.050;2022-11-15T02:00:30;98498.16;;;11.77;64.46
13124;BME280;6627;50.920;12.050;2022-11-15T02:02:58;98489.19;;;11.68;63.84
13124;BME280;6627;50.920;12.050;2022-11-15T02:05:26;98493.84;;;11.36;64.95
13124;BME280;6627;50.920;12.050;2022-11-15T02:07:55;98485.75;;;11.14;65.03
13124;BME280;6627;50.920;12.050;2022-11-15T02:10:24;98500.16;;;11.23;65.75
13124;BME280;6627;50.920;12.050;2022-11-15T02:12:53;98529.13;;;11.76;65.42
13124;BME280;6627;50.920;12.050;2022-11-15T02:15:24;98447.13;;;10.77;66.25
13124;BME280;6627;50.920;12.050;2022-11-15T02:18:09;98498.22;;;11.55;66.11
13124;BME280;6627;50.920;12.050;2022-11-15T02:20:56;98449.78;;;11.22;65.42
13124;BME280;6627;50.920;12.050;2022-11-15T02:29:42;98480.66;;;11.83;64.40
13124;BME280;6627;50.920;12.050;2022-11-15T02:32:23;98481.47;;;11.84;63.91
13124;BME280;6627;50.920;12.050;2022-11-15T02:35:05;98469.22;;;11.24;65.11
13124;BME280;6627;50.920;12.050;2022-11-15T02:37:44;98489.97;;;11.60;65.38
13124;BME280;6627;50.920;12.050;2022-11-15T02:40:26;98500.69;;;11.65;65.25
13124;BME280;6627;50.920;12.050;2022-11-15T02:42:57;98495.41;;;11.60;65.34
13124;BME280;6627;50.920;12.050;2022-11-15T02:45:49;98496.16;;;11.52;65.82
13124;BME280;6627;50.920;12.050;2022-11-15T02:48:21;98475.00;;;11.31;66.19
13124;BME280;6627;50.920;12.050;2022-11-15T02:50:50;98487.94;;;11.74;65.43
13124;BME280;6627;50.920;12.050;2022-11-15T02:53:23;98456.94;;;11.58;65.00
13124;BME280;6627;50.920;12.050;2022-11-15T02:55:52;98522.44;;;12.22;64.26
13124;BME280;6627;50.920;12.050;2022-11-15T02:58:57;98448.66;;;11.23;64.93
13124;BME280;6627;50.920;12.050;2022-11-15T03:01:39;98486.41;;;11.51;65.22
13124;BME280;6627;50.920;12.050;2022-11-15T03:04:23;98497.47;;;11.63;65.07
13124;BME280;6627;50.920;12.050;2022-11-15T03:07:06;98519.03;;;12.08;63.97
13124;BME280;6627;50.920;12.050;2022-11-15T03:09:45;98529.09;;;12.16;64.22
13124;BME280;6627;50.920;12.050;2022-11-15T03:12:29;98481.53;;;11.70;64.09
13124;BME280;6627;50.920;12.050;2022-11-15T03:15:04;98502.69;;;11.91;63.67
13124;BME280;6627;50.920;12.050;2022-11-15T03:17:38;98559.97;;;12.37;64.12
13124;BME280;6627;50.920;12.050;2022-11-15T03:20:13;98495.34;;;11.82;63.79
13124;BME280;6627;50.920;12.050;2022-11-15T03:22:44;98546.56;;;12.32;63.98
13124;BME280;6627;50.920;12.050;2022-11-15T03:25:19;98494.69;;;11.85;63.66
13124;BME280;6627;50.920;12.050;2022-11-15T03:27:52;98495.59;;;11.72;64.22
13124;BME280;6627;50.920;12.050;2022-11-15T03:30:21;98509.28;;;12.07;63.52
13124;BME280;6627;50.920;12.050;2022-11-15T03:32:53;98524.34;;;12.48;62.51
13124;BME280;6627;50.920;12.050;2022-11-15T03:35:27;98548.81;;;12.82;61.92
13124;BME280;6627;50.920;12.050;2022-11-15T03:38:02;98507.91;;;12.35;62.56
13124;BME280;6627;50.920;12.050;2022-11-15T03:40:36;98485.47;;;12.04;62.96
13124;BME280;6627;50.920;12.050;2022-11-15T03:43:15;98509.50;;;12.36;62.46
13124;BME280;6627;50.920;12.050;2022-11-15T03:45:52;98450.66;;;11.89;62.58
13124;BME280;6627;50.920;12.050;2022-11-15T03:48:26;98496.03;;;11.97;63.13
13124;BME280;6627;50.920;12.050;2022-11-15T03:50:57;98475.13;;;11.57;63.89
13124;BME280;6627;50.920;12.050;2022-11-15T03:53:24;98462.22;;;11.63;63.77
13124;BME280;6627;50.920;12.050;2022-11-15T03:55:52;98469.81;;;11.83;63.61
13124;BME280;6627;50.920;12.050;2022-11-15T03:58:19;98434.97;;;11.28;64.25
13124;BME280;6627;50.920;12.050;2022-11-15T04:00:47;98492.84;;;12.12;63.57
13124;BME280;6627;50.920;12.050;2022-11-15T04:03:14;98426.91;;;11.46;63.81
13124;BME280;6627;50.920;12.050;2022-11-15T04:05:41;98473.00;;;11.85;63.77
13124;BME280;6627;50.920;12.050;2022-11-15T04:08:10;98483.41;;;12.01;63.29
13124;BME280;6627;50.920;12.050;2022-11-15T04:10:38;98421.81;;;11.53;62.50
13124;BME280;6627;50.920;12.050;2022-11-15T04:13:05;98482.59;;;11.92;62.89
13124;BME280;6627;50.920;12.050;2022-11-15T04:15:32;98472.38;;;11.89;62.79
13124;BME280;6627;50.920;12.050;2022-11-15T04:18:00;98412.34;;;11.02;63.36
13124;BME280;6627;50.920;12.050;2022-11-15T04:20:29;98394.47;;;10.61;64.25
13124;BME280;6627;50.920;12.050;2022-11-15T04:23:18;98415.22;;;10.97;64.27
13124;BME280;6627;50.920;12.050;2022-11-15T04:26:07;98417.53;;;11.12;63.65
13124;BME280;6627;50.920;12.050;2022-11-15T04:28:36;98336.38;;;10.22;64.54
13124;BME280;6627;50.920;12.050;2022-11-15T04:31:24;98410.44;;;10.94;64.63
13124;BME280;6627;50.920;12.050;2022-11-15T04:33:51;98422.75;;;11.40;63.30
13124;BME280;6627;50.920;12.050;2022-11-15T04:36:19;98305.41;;;10.06;64.55
13124;BME280;6627;50.920;12.050;2022-11-15T04:39:06;98358.47;;;10.38;65.24
13124;BME280;6627;50.920;12.050;2022-11-15T04:41:34;98361.31;;;10.55;65.39
13124;BME280;6627;50.920;12.050;2022-11-15T04:44:01;98398.06;;;11.10;64.78
13124;BME280;6627;50.920;12.050;2022-11-15T04:46:29;98383.53;;;11.06;65.07
13124;BME280;6627;50.920;12.050;2022-11-15T04:48:56;98415.44;;;11.49;64.06
13124;BME280;6627;50.920;12.050;2022-11-15T04:51:23;98382.06;;;11.40;63.46
13124;BME280;6627;50.920;12.050;2022-11-15T04:53:51;98393.59;;;11.14;64.76
13124;BME280;6627;50.920;12.050;2022-11-15T04:56:19;98457.53;;;11.95;63.70
13124;BME280;6627;50.920;12.050;2022-11-15T04:58:48;98367.16;;;10.80;64.74
13124;BME280;6627;50.920;12.050;2022-11-15T05:01:16;98428.59;;;11.33;65.61
13124;BME280;6627;50.920;12.050;2022-11-15T05:03:44;98418.78;;;11.54;64.25
13124;BME280;6627;50.920;12.050;2022-11-15T05:06:29;98363.50;;;10.84;65.34
13124;BME280;6627;50.920;12.050;2022-11-15T05:08:56;98357.38;;;10.70;66.04
13124;BME280;6627;50.920;12.050;2022-11-15T05:11:25;98387.34;;;11.05;65.86
13124;BME280;6627;50.920;12.050;2022-11-15T05:13:53;98400.38;;;11.25;65.73
13124;BME280;6627;50.920;12.050;2022-11-15T05:16:21;98440.09;;;11.78;64.46
13124;BME280;6627;50.920;12.050;2022-11-15T05:18:51;98423.75;;;11.61;64.70
13124;BME280;6627;50.920;12.050;2022-11-15T05:21:18;98432.47;;;11.98;63.83
13124;BME280;6627;50.920;12.050;2022-11-15T05:23:47;98407.41;;;11.83;63.48
13124;BME280;6627;50.920;12.050;2022-11-15T05:26:18;98462.84;;;12.34;62.85
13124;BME280;6627;50.920;12.050;2022-11-15T05:28:52;98393.13;;;11.52;63.51
13124;BME280;6627;50.920;12.050;2022-11-15T05:31:19;98399.63;;;11.42;63.54
13124;BME280;6627;50.920;12.050;2022-11-15T05:33:49;98432.00;;;11.96;63.16
13124;BME280;6627;50.920;12.050;2022-11-15T05:36:24;98439.34;;;11.86;62.95
13124;BME280;6627;50.920;12.050;2022-11-15T05:38:54;98445.22;;;11.89;62.84
13124;BME280;6627;50.920;12.050;2022-11-15T05:41:27;98430.25;;;12.00;62.11
13124;BME280;6627;50.920;12.050;2022-11-15T05:43:58;98436.63;;;12.04;61.79
13124;BME280;6627;50.920;12.050;2022-11-15T05:46:27;98413.41;;;11.72;63.05
13124;BME280;6627;50.920;12.050;2022-11-15T05:48:56;98373.78;;;10.96;63.91
13124;BME280;6627;50.920;12.050;2022-11-15T05:51:24;98387.88;;;10.76;65.22
13124;BME280;6627;50.920;12.050;2022-11-15T05:53:56;98420.84;;;11.49;64.51
13124;BME280;6627;50.920;12.050;2022-11-15T05:56:25;98366.94;;;10.99;64.25
13124;BME280;6627;50.920;12.050;2022-11-15T05:58:56;98442.41;;;11.62;64.59
13124;BME280;6627;50.920;12.050;2022-11-15T06:01:26;98395.84;;;11.60;63.98
13124;BME280;6627;50.920;12.050;2022-11-15T06:03:54;98425.41;;;11.79;63.25
13124;BME280;6627;50.920;12.050;2022-11-15T06:06:21;98329.19;;;11.11;62.98
13124;BME280;6627;50.920;12.050;2022-11-15T06:08:49;98376.28;;;10.93;64.79
13124;BME280;6627;50.920;12.050;2022-11-15T06:11:16;98376.66;;;11.00;65.00
13124;BME280;6627;50.920;12.050;2022-11-15T06:13:43;98395.91;;;11.29;65.04
13124;BME280;6627;50.920;12.050;2022-11-15T06:16:12;98428.56;;;11.81;63.72
13124;BME280;6627;50.920;12.050;2022-11-15T06:18:40;98375.88;;;11.48;63.38
13124;BME280;6627;50.920;12.050;2022-11-15T06:21:08;98372.97;;;10.96;63.93
13124;BME280;6627;50.920;12.050;2022-11-15T06:23:35;98435.72;;;11.51;64.28
13124;BME280;6627;50.920;12.050;2022-11-15T06:26:04;98404.16;;;11.24;64.77
13124;BME280;6627;50.920;12.050;2022-11-15T06:28:32;98375.81;;;10.91;65.14
13124;BME280;6627;50.920;12.050;2022-11-15T06:31:03;98412.50;;;11.36;65.09
13124;BME280;6627;50.920;12.050;2022-11-15T06:33:32;98377.97;;;11.11;64.93
13124;BME280;6627;50.920;12.050;2022-11-15T06:36:01;98389.16;;;11.18;64.64
13124;BME280;6627;50.920;12.050;2022-11-15T06:38:29;98368.22;;;10.70;65.42
13124;BME280;6627;50.920;12.050;2022-11-15T06:41:01;98377.97;;;11.02;64.79
13124;BME280;6627;50.920;12.050;2022-11-15T06:43:29;98383.34;;;10.94;65.64
13124;BME280;6627;50.920;12.050;2022-11-15T06:45:58;98389.78;;;11.15;64.93
13124;BME280;6627;50.920;12.050;2022-11-15T06:48:25;98423.63;;;11.66;64.30
13124;BME280;6627;50.920;12.050;2022-11-15T06:50:57;98385.00;;;11.12;64.29
13124;BME280;6627;50.920;12.050;2022-11-15T06:53:25;98404.31;;;11.19;64.76
13124;BME280;6627;50.920;12.050;2022-11-15T06:55:53;98400.22;;;10.91;65.29
13124;BME280;6627;50.920;12.050;2022-11-15T06:58:21;98420.75;;;11.23;65.11
13124;BME280;6627;50.920;12.050;2022-11-15T07:00:48;98421.47;;;11.46;64.45
13124;BME280;6627;50.920;12.050;2022-11-15T07:03:16;98476.72;;;12.07;63.72
13124;BME280;6627;50.920;12.050;2022-11-15T07:05:51;98421.97;;;11.48;63.94
13124;BME280;6627;50.920;12.050;2022-11-15T07:08:26;98435.84;;;11.55;63.58
13124;BME280;6627;50.920;12.050;2022-11-15T07:10:55;98458.97;;;11.83;63.29
13124;BME280;6627;50.920;12.050;2022-11-15T07:13:25;98443.88;;;11.77;62.96
13124;BME280;6627;50.920;12.050;2022-11-15T07:15:52;98472.22;;;12.02;62.85
13124;BME280;6627;50.920;12.050;2022-11-15T07:18:20;98466.63;;;11.99;62.33
13124;BME280;6627;50.920;12.050;2022-11-15T07:20:47;98479.47;;;12.42;61.45
13124;BME280;6627;50.920;12.050;2022-11-15T07:23:15;98426.53;;;11.78;62.36
13124;BME280;6627;50.920;12.050;2022-11-15T07:25:43;98436.81;;;11.59;62.93
13124;BME280;6627;50.920;12.050;2022-11-15T07:28:10;98454.41;;;11.70;62.88
13124;BME280;6627;50.920;12.050;2022-11-15T07:30:38;98513.63;;;12.25;62.63
13124;BME280;6627;50.920;12.050;2022-11-15T07:33:05;98517.34;;;12.64;61.48
13124;BME280;6627;50.920;12.050;2022-11-15T07:35:32;98477.53;;;12.16;61.83
13124;BME280;6627;50.920;12.050;2022-11-15T07:38:02;98522.31;;;12.62;61.53
13124;BME280;6627;50.920;12.050;2022-11-15T07:40:31;98510.47;;;12.49;61.21
13124;BME280;6627;50.920;12.050;2022-11-15T07:43:03;98478.50;;;12.20;61.69
13124;BME280;6627;50.920;12.050;2022-11-15T07:45:32;98481.66;;;12.05;62.48
13124;BME280;6627;50.920;12.050;2022-11-15T07:48:00;98504.38;;;12.44;61.70
13124;BME280;6627;50.920;12.050;2022-11-15T07:50:28;98533.00;;;13.02;60.29
13124;BME280;6627;50.920;12.050;2022-11-15T07:52:59;98478.69;;;12.58;60.29
13124;BME280;6627;50.920;12.050;2022-11-15T07:55:27;98483.63;;;12.65;60.04
13124;BME280;6627;50.920;12.050;2022-11-15T07:58:02;98477.56;;;12.59;60.06
13124;BME280;6627;50.920;12.050;2022-11-15T08:00:30;98524.19;;;13.22;59.00
13124;BME280;6627;50.920;12.050;2022-11-15T08:03:04;98492.53;;;12.83;59.75
13124;BME280;6627;50.920;12.050;2022-11-15T08:05:34;98545.41;;;13.46;58.97
13124;BME280;6627;50.920;12.050;2022-11-15T08:08:02;98550.59;;;13.77;58.01
13124;BME280;6627;50.920;12.050;2022-11-15T08:10:30;98505.63;;;13.24;58.65
13124;BME280;6627;50.920;12.050;2022-11-15T08:13:01;98501.00;;;13.25;58.53
13124;BME280;6627;50.920;12.050;2022-11-15T08:15:30;98505.44;;;13.38;58.42
13124;BME280;6627;50.920;12.050;2022-11-15T08:17:59;98498.25;;;13.33;58.53
13124;BME280;6627;50.920;12.050;2022-11-15T08:20:29;98496.09;;;13.56;57.86
13124;BME280;6627;50.920;12.050;2022-11-15T08:22:57;98482.00;;;13.54;57.79
13124;BME280;6627;50.920;12.050;2022-11-15T08:25:28;98499.03;;;13.72;57.66
13124;BME280;6627;50.920;12.050;2022-11-15T08:27:59;98520.78;;;14.10;56.78
13124;BME280;6627;50.920;12.050;2022-11-15T08:30:28;98457.00;;;13.61;57.05
13124;BME280;6627;50.920;12.050;2022-11-15T08:32:58;98488.81;;;13.99;57.18
13124;BME280;6627;50.920;12.050;2022-11-15T08:35:25;98513.13;;;14.33;56.49
13124;BME280;6627;50.920;12.050;2022-11-15T08:37:53;98509.78;;;14.57;55.84
13124;BME280;6627;50.920;12.050;2022-11-15T08:40:21;98448.94;;;14.24;55.56
13124;BME280;6627;50.920;12.050;2022-11-15T08:42:49;98493.47;;;14.70;55.39
13124;BME280;6627;50.920;12.050;2022-11-15T08:45:16;98477.25;;;14.73;54.89
13124;BME280;6627;50.920;12.050;2022-11-15T08:47:45;98444.03;;;14.59;54.84
13124;BME280;6627;50.920;12.050;2022-11-15T08:50:13;98442.28;;;14.75;54.57
13124;BME280;6627;50.920;12.050;2022-11-15T08:52:40;98481.03;;;15.14;54.12
13124;BME280;6627;50.920;12.050;2022-11-15T08:55:08;98427.31;;;14.81;54.16
13124;BME280;6627;50.920;12.050;2022-11-15T08:57:35;98439.88;;;15.07;53.94
13124;BME280;6627;50.920;12.050;2022-11-15T09:00:04;98414.28;;;14.99;53.74
13124;BME280;6627;50.920;12.050;2022-11-15T09:02:32;98440.38;;;15.33;53.10
13124;BME280;6627;50.920;12.050;2022-11-15T09:05:01;98461.31;;;15.54;53.36
13124;BME280;6627;50.920;12.050;2022-11-15T09:07:28;98434.72;;;15.51;52.93
13124;BME280;6627;50.920;12.050;2022-11-15T09:09:56;98491.16;;;15.96;53.01
13124;BME280;6627;50.920;12.050;2022-11-15T09:12:25;98415.13;;;15.61;52.73
13124;BME280;6627;50.920;12.050;2022-11-15T09:14:53;98393.28;;;15.49;52.92
13124;BME280;6627;50.920;12.050;2022-11-15T09:17:21;98452.56;;;15.97;52.63
13124;BME280;6627;50.920;12.050;2022-11-15T09:19:49;98395.38;;;15.64;52.41
13124;BME280;6627;50.920;12.050;2022-11-15T09:22:18;98473.56;;;16.33;52.27
13124;BME280;6627;50.920;12.050;2022-11-15T09:24:47;98429.34;;;16.03;52.12
13124;BME280;6627;50.920;12.050;2022-11-15T09:27:14;98456.22;;;16.42;51.61
13124;BME280;6627;50.920;12.050;2022-11-15T09:29:41;98419.16;;;16.28;51.16
13124;BME280;6627;50.920;12.050;2022-11-15T09:32:09;98381.88;;;16.08;51.16
13124;BME280;6627;50.920;12.050;2022-11-15T09:34:36;98436.34;;;16.29;51.89
13124;BME280;6627;50.920;12.050;2022-11-15T09:37:05;98353.44;;;15.97;51.12
13124;BME280;6627;50.920;12.050;2022-11-15T09:39:35;98433.25;;;16.43;51.19
13124;BME280;6627;50.920;12.050;2022-11-15T09:42:22;98409.88;;;16.45;50.85
13124;BME280;6627;50.920;12.050;2022-11-15T09:45:06;98407.81;;;16.42;50.88
13124;BME280;6627;50.920;12.050;2022-11-15T09:48:04;98454.84;;;17.04;50.17
13124;BME280;6627;50.920;12.050;2022-11-15T09:50:41;98423.34;;;16.94;49.60
13124;BME280;6627;50.920;12.050;2022-11-15T09:53:17;98403.88;;;16.96;49.32
13124;BME280;6627;50.920;12.050;2022-11-15T09:55:58;98392.91;;;16.96;49.43
13124;BME280;6627;50.920;12.050;2022-11-15T09:58:38;98366.94;;;16.89;49.50
13124;BME280;6627;50.920;12.050;2022-11-15T10:01:33;98447.81;;;17.66;48.99
13124;BME280;6627;50.920;12.050;2022-11-15T10:04:01;98429.38;;;17.63;48.37
13124;BME280;6627;50.920;12.050;2022-11-15T10:06:30;98432.66;;;17.84;47.84
13124;BME280;6627;50.920;12.050;2022-11-15T10:09:04;98318.41;;;17.18;48.22
13124;BME280;6627;50.920;12.050;2022-11-15T10:11:36;98366.22;;;17.56;48.04
13124;BME280;6627;50.920;12.050;2022-11-15T10:14:11;98382.38;;;17.77;47.82
13124;BME280;6627;50.920;12.050;2022-11-15T10:17:31;98348.09;;;17.67;47.71
13124;BME280;6627;50.920;12.050;2022-11-15T10:20:14;98389.22;;;18.02;47.43
13124;BME280;6627;50.920;12.050;2022-11-15T10:22:47;98363.16;;;17.93;47.47
13124;BME280;6627;50.920;12.050;2022-11-15T10:25:20;98332.00;;;17.81;47.30
13124;BME280;6627;50.920;12.050;2022-11-15T10:27:55;98330.28;;;18.12;46.53
13124;BME280;6627;50.920;12.050;2022-11-15T10:30:30;98337.47;;;18.39;45.91
13124;BME280;6627;50.920;12.050;2022-11-15T10:33:08;98345.69;;;18.59;45.88
13124;BME280;6627;50.920;12.050;2022-11-15T10:35:37;98339.47;;;18.62;45.95
13124;BME280;6627;50.920;12.050;2022-11-15T10:38:07;98341.91;;;18.67;45.69
13124;BME280;6627;50.920;12.050;2022-11-15T10:40:35;98282.41;;;18.48;45.40
13124;BME280;6627;50.920;12.050;2022-11-15T10:43:15;98344.50;;;18.79;45.58
13124;BME280;6627;50.920;12.050;2022-11-15T10:45:44;98324.47;;;18.75;45.68
13124;BME280;6627;50.920;12.050;2022-11-15T10:48:24;98288.00;;;18.75;44.99
13124;BME280;6627;50.920;12.050;2022-11-15T10:50:54;98277.34;;;18.70;44.85
13124;BME280;6627;50.920;12.050;2022-11-15T10:53:42;98283.31;;;18.75;45.06
13124;BME280;6627;50.920;12.050;2022-11-15T10:56:14;98348.94;;;19.33;44.35
13124;BME280;6627;50.920;12.050;2022-11-15T10:58:54;98332.06;;;19.31;44.07
13124;BME280;6627;50.920;12.050;2022-11-15T11:01:24;98287.16;;;19.20;43.93
13124;BME280;6627;50.920;12.050;2022-11-15T11:03:59;98348.88;;;19.56;44.18
13124;BME280;6627;50.920;12.050;2022-11-15T11:06:28;98365.78;;;19.81;43.60
13124;BME280;6627;50.920;12.050;2022-11-15T11:09:00;98298.94;;;19.47;43.58
13124;BME280;6627;50.920;12.050;2022-11-15T11:11:46;98239.56;;;19.09;43.83
13124;BME280;6627;50.920;12.050;2022-11-15T11:14:21;98245.38;;;19.04;44.08
13124;BME280;6627;50.920;12.050;2022-11-15T11:16:55;98244.66;;;19.10;43.96
13124;BME280;6627;50.920;12.050;2022-11-15T11:19:44;98090.16;;;18.04;45.11
13124;BME280;6627;50.920;12.050;2022-11-15T11:22:23;98309.13;;;19.73;43.55
13124;BME280;6627;50.920;12.050;2022-11-15T11:25:08;98217.41;;;19.25;43.26
13124;BME280;6627;50.920;12.050;2022-11-15T11:27:59;98271.31;;;19.63;42.85
13124;BME280;6627;50.920;12.050;2022-11-15T11:30:47;98212.72;;;19.25;43.12
13124;BME280;6627;50.920;12.050;2022-11-15T11:33:21;98271.78;;;19.42;43.42
13124;BME280;6627;50.920;12.050;2022-11-15T11:36:20;98259.59;;;19.66;43.05
13124;BME280;6627;50.920;12.050;2022-11-15T11:39:10;98222.75;;;19.40;43.07
13124;BME280;6627;50.920;12.050;2022-11-15T11:41:55;98303.63;;;20.03;42.77
13124;BME280;6627;50.920;12.050;2022-11-15T11:44:32;98266.97;;;19.92;42.43
13124;BME280;6627;50.920;12.050;2022-11-15T11:47:10;98206.78;;;19.50;43.39
13124;BME280;6627;50.920;12.050;2022-11-15T11:49:44;98322.28;;;20.51;42.57
13124;BME280;6627;50.920;12.050;2022-11-15T11:52:17;98255.53;;;20.20;42.52
13124;BME280;6627;50.920;12.050;2022-11-15T11:54:59;98269.75;;;20.29;42.44
13124;BME280;6627;50.920;12.050;2022-11-15T11:57:39;98208.16;;;19.97;42.47
13124;BME280;6627;50.920;12.050;2022-11-15T12:00:18;98249.94;;;20.13;42.63
13124;BME280;6627;50.920;12.050;2022-11-15T12:03:02;98145.78;;;19.67;42.49
13124;BME280;6627;50.920;12.050;2022-11-15T12:05:35;98191.13;;;19.87;42.78
13124;BME280;6627;50.920;12.050;2022-11-15T12:08:25;98227.59;;;20.18;42.58
13124;BME280;6627;50.920;12.050;2022-11-15T12:11:06;98213.06;;;20.17;42.26
13124;BME280;6627;50.920;12.050;2022-11-15T12:13:36;98259.97;;;20.69;41.82
13124;BME280;6627;50.920;12.050;2022-11-15T12:16:13;98303.44;;;20.97;41.50
13124;BME280;6627;50.920;12.050;2022-11-15T12:18:48;98143.75;;;19.98;42.15
13124;BME280;6627;50.920;12.050;2022-11-15T12:21:26;98222.84;;;20.52;42.17
13124;BME280;6627;50.920;12.050;2022-11-15T12:24:02;98215.81;;;20.55;42.25
13124;BME280;6627;50.920;12.050;2022-11-15T12:26:36;98256.25;;;20.95;41.83
13124;BME280;6627;50.920;12.050;2022-11-15T12:29:14;98141.59;;;20.21;41.90
13124;BME280;6627;50.920;12.050;2022-11-15T12:31:48;98131.22;;;20.04;42.19
13124;BME280;6627;50.920;12.050;2022-11-15T12:34:42;98175.63;;;20.47;42.24
13124;BME280;6627;50.920;12.050;2022-11-15T12:37:46;98101.25;;;19.88;42.68
13124;BME280;6627;50.920;12.050;2022-11-15T12:40:24;98120.25;;;20.04;42.58
13124;BME280;6627;50.920;12.050;2022-11-15T12:43:36;98132.31;;;20.36;42.08
13124;BME280;6627;50.920;12.050;2022-11-15T12:46:11;98089.66;;;20.09;42.28
13124;BME280;6627;50.920;12.050;2022-11-15T12:48:58;98155.22;;;20.48;42.30
13124;BME280;6627;50.920;12.050;2022-11-15T12:52:06;98156.00;;;20.48;41.68
13124;BME280;6627;50.920;12.050;2022-11-15T12:54:56;98123.66;;;20.34;41.78
13124;BME280;6627;50.920;12.050;2022-11-15T12:57:41;98144.28;;;20.55;41.65
13124;BME280;6627;50.920;12.050;2022-11-15T13:00:42;98142.69;;;20.54;41.48
13124;BME280;6627;50.920;12.050;2022-11-15T13:03:28;98127.56;;;20.33;42.01
13124;BME280;6627;50.920;12.050;2022-11-15T13:06:06;98151.41;;;20.63;41.47
13124;BME280;6627;50.920;12.050;2022-11-15T13:08:50;98149.16;;;20.79;41.16
13124;BME280;6627;50.920;12.050;2022-11-15T13:11:51;98128.59;;;20.62;41.33
13124;BME280;6627;50.920;12.050;2022-11-15T13:14:57;98173.69;;;20.99;41.38
13124;BME280;6627;50.920;12.050;2022-11-15T13:17:35;98175.63;;;20.95;41.64
13124;BME280;6627;50.920;12.050;2022-11-15T13:20:24;98189.53;;;21.20;40.86
13124;BME280;6627;50.920;12.050;2022-11-15T13:23:01;98140.59;;;20.91;41.00
13124;BME280;6627;50.920;12.050;2022-11-15T13:28:45;98193.81;;;21.94;39.60
13124;BME280;6627;50.920;12.050;2022-11-15T13:31:27;98042.31;;;21.03;40.17
13124;BME280;6627;50.920;12.050;2022-11-15T13:33:59;98054.81;;;20.82;41.12
13124;BME280;6627;50.920;12.050;2022-11-15T13:36:32;98067.16;;;21.17;40.01
13124;BME280;6627;50.920;12.050;2022-11-15T13:39:04;98095.22;;;21.40;39.82
13124;BME280;6627;50.920;12.050;2022-11-15T13:41:35;98006.03;;;20.72;40.25